sensor_id;sensor_type;location;lat;lon;timestamp;P1;durP1;ratioP1;P2;durP2;ratioP2
10351;SDS011;5222;49.324;8.420;2022-09-12T00:00:00;1105.50;;;999.90;;
10351;SDS011;5222;49.324;8.420;2022-09-12T00:02:28;1100.63;;;999.90;;
10351;SDS011;5222;49.324;8.420;2022-09-12T00:04:54;1106.03;;;999.90;;
10351;SDS011;5222;49.324;8.420;2022-09-12T00:07:21;1101.28;;;999.90;;
10351;SDS011;5222;49.324;8.420;2022-09-12T00:09:49;1106.05;;;999.90;;
10351;SDS011;5222;49.324;8.420;2022-09-12T00:12:16;1106.05;;;999.90;;
10351;SDS011;5222;49.324;8.420;2022-09-12T00:14:42;1099.80;;;999.90;;
10351;SDS011;5222;49.324;8.420;2022-09-12T00:17:09;1105.85;;;999.90;;
10351;SDS011;5222;49.324;8.420;2022-09-12T00:19:36;1105.28;;;999.90;;
10351;SDS011;5222;49.324;8.420;2022-09-12T00:22:03;1101.18;;;999.90;;
10351;SDS011;5222;49.324;8.420;2022-09-12T00:24:29;1100.88;;;999.90;;
10351;SDS011;5222;49.324;8.420;2022-09-12T00:26:59;1106.38;;;999.90;;
10351;SDS011;5222;49.324;8.420;2022-09-12T00:29:25;1098.47;;;999.90;;
10351;SDS011;5222;49.324;8.420;2022-09-12T00:31:52;1098.45;;;999.90;;
10351;SDS011;5222;49.324;8.420;2022-09-12T00:34:19;1094.90;;;999.90;;
10351;SDS011;5222;49.324;8.420;2022-09-12T00:36:46;1101.85;;;999.90;;
10351;SDS011;5222;49.324;8.420;2022-09-12T00:39:13;1095.13;;;999.90;;
10351;SDS011;5222;49.324;8.420;2022-09-12T00:41:42;1099.00;;;999.90;;
10351;SDS011;5222;49.324;8.420;2022-09-12T00:47:15;1089.75;;;999.90;;
10351;SDS011;5222;49.324;8.420;2022-09-12T00:49:47;1094.27;;;999.90;;
10351;SDS011;5222;49.324;8.420;2022-09-12T00:52:17;1095.33;;;999.90;;
10351;SDS011;5222;49.324;8.420;2022-09-12T00:54:48;1104.57;;;999.90;;
10351;SDS011;5222;49.324;8.420;2022-09-12T00:57:18;1100.88;;;999.90;;
10351;SDS011;5222;49.324;8.420;2022-09-12T00:59:48;1103.90;;;999.90;;
10351;SDS011;5222;49.324;8.420;2022-09-12T01:02:19;1095.55;;;999.90;;
10351;SDS011;5222;49.324;8.420;2022-09-12T01:04:46;1103.45;;;999.90;;
10351;SDS011;5222;49.324;8.420;2022-09-12T01:07:14;1104.45;;;999.90;;
10351;SDS011;5222;49.324;8.420;2022-09-12T01:09:41;1115.13;;;999.90;;
10351;SDS011;5222;49.324;8.420;2022-09-12T01:12:09;1104.90;;;999.90;;
10351;SDS011;5222;49.324;8.420;2022-09-12T01:14:38;1108.80;;;999.90;;
10351;SDS011;5222;49.324;8.420;2022-09-12T01:17:05;1107.07;;;999.90;;
10351;SDS011;5222;49.324;8.420;2022-09-12T01:19:49;1108.88;;;999.90;;
10351;SDS011;5222;49.324;8.420;2022-09-12T01:22:44;1112.57;;;999.90;;
10351;SDS011;5222;49.324;8.420;2022-09-12T01:25:34;1110.25;;;999.90;;
10351;SDS011;5222;49.324;8.420;2022-09-12T01:28:21;1109.25;;;999.90;;
10351;SDS011;5222;49.324;8.420;2022-09-12T01:31:02;1115.97;;;999.90;;
10351;SDS011;5222;49.324;8.420;2022-09-12T01:33:34;1116.10;;;999.90;;
10351;SDS011;5222;49.324;8.420;2022-09-12T01:36:19;1117.57;;;999.90;;
10351;SDS011;5222;49.324;8.420;2022-09-12T01:38:59;1118.72;;;999.90;;
10351;SDS011;5222;49.324;8.420;2022-09-12T01:41:29;1118.95;;;999.90;;
10351;SDS011;5222;49.324;8.420;2022-09-12T01:44:10;1117.53;;;999.90;;
10351;SDS011;5222;49.324;8.420;2022-09-12T01:46:49;1125.72;;;999.90;;
10351;SDS011;5222;49.324;8.420;2022-09-12T01:49:21;1116.68;;;999.90;;
10351;SDS011;5222;49.324;8.420;2022-09-12T01:51:54;1126.32;;;999.90;;
10351;SDS011;5222;49.324;8.420;2022-09-12T01:54:25;1126.43;;;999.90;;
10351;SDS011;5222;49.324;8.420;2022-09-12T01:56:56;1138.10;;;999.90;;
10351;SDS011;5222;49.324;8.420;2022-09-12T01:59:27;1123.60;;;999.90;;
10351;SDS011;5222;49.324;8.420;2022-09-12T02:02:01;1126.00;;;999.90;;
10351;SDS011;5222;49.324;8.420;2022-09-12T02:04:33;1113.05;;;999.90;;
10351;SDS011;5222;49.324;8.420;2022-09-12T02:07:07;1124.78;;;999.90;;
10351;SDS011;5222;49.324;8.420;2022-09-12T02:09:40;1114.30;;;999.90;;
10351;SDS011;5222;49.324;8.420;2022-09-12T02:12:10;1113.35;;;999.90;;
10351;SDS011;5222;49.324;8.420;2022-09-12T02:14:39;1119.88;;;999.90;;
10351;SDS011;5222;49.324;8.420;2022-09-12T02:17:13;1115.18;;;999.90;;
10351;SDS011;5222;49.324;8.420;2022-09-12T02:19:44;1114.30;;;999.90;;
10351;SDS011;5222;49.324;8.420;2022-09-12T02:22:16;1119.93;;;999.90;;
10351;SDS011;5222;49.324;8.420;2022-09-12T02:24:49;1112.63;;;999.90;;
10351;SDS011;5222;49.324;8.420;2022-09-12T02:27:21;1119.45;;;999.90;;
10351;SDS011;5222;49.324;8.420;2022-09-12T02:29:50;1110.05;;;999.90;;
10351;SDS011;5222;49.324;8.420;2022-09-12T02:32:22;1113.22;;;999.90;;
10351;SDS011;5222;49.324;8.420;2022-09-12T02:34:55;1115.53;;;999.90;;
10351;SDS011;5222;49.324;8.420;2022-09-12T02:37:31;1111.38;;;999.90;;
10351;SDS011;5222;49.324;8.420;2022-09-12T02:40:08;1107.38;;;999.90;;
10351;SDS011;5222;49.324;8.420;2022-09-12T02:42:35;1115.65;;;999.90;;
10351;SDS011;5222;49.324;8.420;2022-09-12T02:45:02;1117.82;;;999.90;;
10351;SDS011;5222;49.324;8.420;2022-09-12T02:47:32;1115.45;;;999.90;;
10351;SDS011;5222;49.324;8.420;2022-09-12T02:50:03;1114.27;;;999.90;;
10351;SDS011;5222;49.324;8.420;2022-09-12T02:52:32;1115.18;;;999.90;;
10351;SDS011;5222;49.324;8.420;2022-09-12T02:54:59;1111.63;;;999.90;;
10351;SDS011;5222;49.324;8.420;2022-09-12T02:57:27;1113.97;;;999.90;;
10351;SDS011;5222;49.324;8.420;2022-09-12T02:59:54;1110.88;;;999.90;;
10351;SDS011;5222;49.324;8.420;2022-09-12T03:02:26;1111.20;;;999.90;;
10351;SDS011;5222;49.324;8.420;2022-09-12T03:05:02;1121.82;;;999.90;;
10351;SDS011;5222;49.324;8.420;2022-09-12T03:07:45;1110.33;;;999.90;;
10351;SDS011;5222;49.324;8.420;2022-09-12T03:10:26;1114.50;;;999.90;;
10351;SDS011;5222;49.324;8.420;2022-09-12T03:13:00;1110.95;;;999.90;;
10351;SDS011;5222;49.324;8.420;2022-09-12T03:15:39;1103.70;;;999.90;;
10351;SDS011;5222;49.324;8.420;2022-09-12T03:18:17;1108.28;;;999.90;;
10351;SDS011;5222;49.324;8.420;2022-09-12T03:20:59;1110.37;;;999.90;;
10351;SDS011;5222;49.324;8.420;2022-09-12T03:23:33;1100.07;;;999.90;;
10351;SDS011;5222;49.324;8.420;2022-09-12T03:26:05;1111.80;;;999.90;;
10351;SDS011;5222;49.324;8.420;2022-09-12T03:28:35;1103.13;;;999.90;;
10351;SDS011;5222;49.324;8.420;2022-09-12T03:31:10;1110.78;;;999.90;;
10351;SDS011;5222;49.324;8.420;2022-09-12T03:33:39;1108.40;;;999.90;;
10351;SDS011;5222;49.324;8.420;2022-09-12T03:36:07;1103.10;;;999.90;;
10351;SDS011;5222;49.324;8.420;2022-09-12T03:38:39;1106.78;;;999.90;;
10351;SDS011;5222;49.324;8.420;2022-09-12T03:41:06;1109.75;;;999.90;;
10351;SDS011;5222;49.324;8.420;2022-09-12T03:43:33;1095.18;;;999.90;;
10351;SDS011;5222;49.324;8.420;2022-09-12T03:45:59;1108.25;;;999.90;;
10351;SDS011;5222;49.324;8.420;2022-09-12T03:48:26;1098.47;;;999.90;;
10351;SDS011;5222;49.324;8.420;2022-09-12T03:50:53;1103.88;;;999.90;;
10351;SDS011;5222;49.324;8.420;2022-09-12T03:53:21;1104.85;;;999.90;;
10351;SDS011;5222;49.324;8.420;2022-09-12T03:55:47;1103.93;;;999.90;;
10351;SDS011;5222;49.324;8.420;2022-09-12T03:58:14;1110.80;;;999.90;;
10351;SDS011;5222;49.324;8.420;2022-09-12T04:00:41;1111.03;;;999.90;;
10351;SDS011;5222;49.324;8.420;2022-09-12T04:03:08;1104.38;;;999.90;;
10351;SDS011;5222;49.324;8.420;2022-09-12T04:05:35;1111.47;;;999.90;;
10351;SDS011;5222;49.324;8.420;2022-09-12T04:08:01;1110.20;;;999.90;;
10351;SDS011;5222;49.324;8.420;2022-09-12T04:10:30;1111.27;;;999.90;;
10351;SDS011;5222;49.324;8.420;2022-09-12T04:12:56;1113.15;;;999.90;;
10351;SDS011;5222;49.324;8.420;2022-09-12T04:15:23;1098.15;;;999.90;;
10351;SDS011;5222;49.324;8.420;2022-09-12T04:17:50;1103.43;;;999.90;;
10351;SDS011;5222;49.324;8.420;2022-09-12T04:20:16;1119.88;;;999.90;;
10351;SDS011;5222;49.324;8.420;2022-09-12T04:22:43;1106.63;;;999.90;;
10351;SDS011;5222;49.324;8.420;2022-09-12T04:25:10;1109.85;;;999.90;;
10351;SDS011;5222;49.324;8.420;2022-09-12T04:27:38;1105.22;;;999.90;;
10351;SDS011;5222;49.324;8.420;2022-09-12T04:30:06;1110.28;;;999.90;;
10351;SDS011;5222;49.324;8.420;2022-09-12T04:32:33;1112.30;;;999.90;;
10351;SDS011;5222;49.324;8.420;2022-09-12T04:35:00;1110.95;;;999.90;;
10351;SDS011;5222;49.324;8.420;2022-09-12T04:37:27;1103.68;;;999.90;;
10351;SDS011;5222;49.324;8.420;2022-09-12T04:39:53;1101.90;;;999.90;;
10351;SDS011;5222;49.324;8.420;2022-09-12T04:42:21;1095.82;;;999.90;;
10351;SDS011;5222;49.324;8.420;2022-09-12T04:44:50;1111.65;;;999.90;;
10351;SDS011;5222;49.324;8.420;2022-09-12T04:47:17;1104.10;;;999.90;;
10351;SDS011;5222;49.324;8.420;2022-09-12T04:49:43;1103.03;;;999.90;;
10351;SDS011;5222;49.324;8.420;2022-09-12T04:52:10;1107.57;;;999.90;;
10351;SDS011;5222;49.324;8.420;2022-09-12T04:54:37;1114.95;;;999.90;;
10351;SDS011;5222;49.324;8.420;2022-09-12T04:57:04;1106.50;;;999.90;;
10351;SDS011;5222;49.324;8.420;2022-09-12T04:59:30;1112.97;;;999.90;;
10351;SDS011;5222;49.324;8.420;2022-09-12T05:01:58;1107.85;;;999.90;;
10351;SDS011;5222;49.324;8.420;2022-09-12T05:04:25;1109.50;;;999.90;;
10351;SDS011;5222;49.324;8.420;2022-09-12T05:06:52;1106.15;;;999.90;;
10351;SDS011;5222;49.324;8.420;2022-09-12T05:09:19;1110.60;;;999.90;;
10351;SDS011;5222;49.324;8.420;2022-09-12T05:11:45;1115.53;;;999.90;;
10351;SDS011;5222;49.324;8.420;2022-09-12T05:14:12;1110.88;;;999.90;;
10351;SDS011;5222;49.324;8.420;2022-09-12T05:16:39;1100.80;;;999.90;;
10351;SDS011;5222;49.324;8.420;2022-09-12T05:19:08;1106.80;;;999.90;;
10351;SDS011;5222;49.324;8.420;2022-09-12T05:21:36;1113.87;;;999.90;;
10351;SDS011;5222;49.324;8.420;2022-09-12T05:24:03;1104.72;;;999.90;;
10351;SDS011;5222;49.324;8.420;2022-09-12T05:26:30;1112.05;;;999.90;;
10351;SDS011;5222;49.324;8.420;2022-09-12T05:28:57;1102.55;;;999.90;;
10351;SDS011;5222;49.324;8.420;2022-09-12T05:31:25;1096.70;;;999.90;;
10351;SDS011;5222;49.324;8.420;2022-09-12T05:33:53;1103.05;;;999.90;;
10351;SDS011;5222;49.324;8.420;2022-09-12T05:36:23;1104.67;;;999.90;;
10351;SDS011;5222;49.324;8.420;2022-09-12T05:38:51;1104.57;;;999.90;;
10351;SDS011;5222;49.324;8.420;2022-09-12T05:41:18;1098.65;;;999.90;;
10351;SDS011;5222;49.324;8.420;2022-09-12T05:43:46;1094.80;;;999.90;;
10351;SDS011;5222;49.324;8.420;2022-09-12T05:46:18;1086.10;;;999.90;;
10351;SDS011;5222;49.324;8.420;2022-09-12T05:48:46;1088.68;;;999.90;;
10351;SDS011;5222;49.324;8.420;2022-09-12T05:51:14;1087.03;;;999.90;;
10351;SDS011;5222;49.324;8.420;2022-09-12T05:53:45;1085.47;;;999.90;;
10351;SDS011;5222;49.324;8.420;2022-09-12T05:56:13;1082.57;;;999.90;;
10351;SDS011;5222;49.324;8.420;2022-09-12T05:58:41;1077.68;;;999.90;;
10351;SDS011;5222;49.324;8.420;2022-09-12T06:01:11;1095.53;;;999.90;;
10351;SDS011;5222;49.324;8.420;2022-09-12T06:03:39;1093.55;;;999.90;;
10351;SDS011;5222;49.324;8.420;2022-09-12T06:06:07;1076.38;;;999.90;;
10351;SDS011;5222;49.324;8.420;2022-09-12T06:08:37;1081.93;;;999.90;;
10351;SDS011;5222;49.324;8.420;2022-09-12T06:11:06;1086.18;;;999.90;;
10351;SDS011;5222;49.324;8.420;2022-09-12T06:13:36;1076.53;;;999.90;;
10351;SDS011;5222;49.324;8.420;2022-09-12T06:16:04;1078.45;;;999.90;;
10351;SDS011;5222;49.324;8.420;2022-09-12T06:18:32;1074.90;;;999.90;;
10351;SDS011;5222;49.324;8.420;2022-09-12T06:21:01;1076.70;;;999.90;;
10351;SDS011;5222;49.324;8.420;2022-09-12T06:23:28;1075.85;;;999.90;;
10351;SDS011;5222;49.324;8.420;2022-09-12T06:25:55;1079.78;;;999.90;;
10351;SDS011;5222;49.324;8.420;2022-09-12T06:28:23;1071.60;;;999.10;;
10351;SDS011;5222;49.324;8.420;2022-09-12T06:30:51;1065.82;;;994.75;;
10351;SDS011;5222;49.324;8.420;2022-09-12T06:33:18;1072.40;;;999.85;;
10351;SDS011;5222;49.324;8.420;2022-09-12T06:35:44;1072.40;;;999.80;;
10351;SDS011;5222;49.324;8.420;2022-09-12T06:38:11;1071.72;;;998.63;;
10351;SDS011;5222;49.324;8.420;2022-09-12T06:40:40;1068.45;;;997.78;;
10351;SDS011;5222;49.324;8.420;2022-09-12T06:43:08;1072.68;;;999.90;;
10351;SDS011;5222;49.324;8.420;2022-09-12T06:45:37;1055.85;;;986.50;;
10351;SDS011;5222;49.324;8.420;2022-09-12T06:48:04;1066.95;;;995.58;;
10351;SDS011;5222;49.324;8.420;2022-09-12T06:50:31;1066.53;;;995.95;;
10351;SDS011;5222;49.324;8.420;2022-09-12T06:52:58;1064.83;;;994.07;;
10351;SDS011;5222;49.324;8.420;2022-09-12T06:55:24;1068.03;;;997.88;;
10351;SDS011;5222;49.324;8.420;2022-09-12T06:57:53;1073.93;;;999.90;;
10351;SDS011;5222;49.324;8.420;2022-09-12T07:00:20;1072.70;;;999.90;;
10351;SDS011;5222;49.324;8.420;2022-09-12T07:02:50;1056.82;;;987.00;;
10351;SDS011;5222;49.324;8.420;2022-09-12T07:05:20;1057.65;;;987.78;;
10351;SDS011;5222;49.324;8.420;2022-09-12T07:07:47;1038.72;;;970.55;;
10351;SDS011;5222;49.324;8.420;2022-09-12T07:10:14;958.53;;;892.03;;
10351;SDS011;5222;49.324;8.420;2022-09-12T07:12:40;959.22;;;893.63;;
10351;SDS011;5222;49.324;8.420;2022-09-12T07:15:08;1014.92;;;947.03;;
10351;SDS011;5222;49.324;8.420;2022-09-12T07:17:35;1000.38;;;933.88;;
10351;SDS011;5222;49.324;8.420;2022-09-12T07:20:04;946.75;;;881.47;;
10351;SDS011;5222;49.324;8.420;2022-09-12T07:22:31;904.80;;;841.97;;
10351;SDS011;5222;49.324;8.420;2022-09-12T07:24:58;807.40;;;747.58;;
10351;SDS011;5222;49.324;8.420;2022-09-12T07:27:25;782.38;;;723.45;;
10351;SDS011;5222;49.324;8.420;2022-09-12T07:29:51;781.30;;;722.00;;
10351;SDS011;5222;49.324;8.420;2022-09-12T07:32:19;797.95;;;736.28;;
10351;SDS011;5222;49.324;8.420;2022-09-12T07:34:47;768.20;;;709.80;;
10351;SDS011;5222;49.324;8.420;2022-09-12T07:37:15;766.07;;;707.30;;
10351;SDS011;5222;49.324;8.420;2022-09-12T07:39:42;774.95;;;715.67;;
10351;SDS011;5222;49.324;8.420;2022-09-12T07:42:08;765.40;;;706.45;;
10351;SDS011;5222;49.324;8.420;2022-09-12T07:44:36;775.75;;;716.08;;
10351;SDS011;5222;49.324;8.420;2022-09-12T07:47:03;775.07;;;715.63;;
10351;SDS011;5222;49.324;8.420;2022-09-12T07:49:30;752.22;;;693.60;;
10351;SDS011;5222;49.324;8.420;2022-09-12T07:51:56;764.15;;;705.75;;
10351;SDS011;5222;49.324;8.420;2022-09-12T07:54:25;765.72;;;705.33;;
10351;SDS011;5222;49.324;8.420;2022-09-12T07:56:51;767.47;;;707.25;;
10351;SDS011;5222;49.324;8.420;2022-09-12T07:59:18;759.30;;;700.42;;
10351;SDS011;5222;49.324;8.420;2022-09-12T08:01:45;761.08;;;701.80;;
10351;SDS011;5222;49.324;8.420;2022-09-12T08:04:12;768.70;;;708.25;;
10351;SDS011;5222;49.324;8.420;2022-09-12T08:06:40;765.05;;;705.92;;
10351;SDS011;5222;49.324;8.420;2022-09-12T08:09:07;763.27;;;702.83;;
10351;SDS011;5222;49.324;8.420;2022-09-12T08:11:37;766.23;;;707.00;;
10351;SDS011;5222;49.324;8.420;2022-09-12T08:14:04;769.63;;;709.85;;
10351;SDS011;5222;49.324;8.420;2022-09-12T08:16:31;762.45;;;703.15;;
10351;SDS011;5222;49.324;8.420;2022-09-12T08:18:59;755.28;;;697.00;;
10351;SDS011;5222;49.324;8.420;2022-09-12T08:21:27;760.58;;;701.83;;
10351;SDS011;5222;49.324;8.420;2022-09-12T08:23:55;767.17;;;708.10;;
10351;SDS011;5222;49.324;8.420;2022-09-12T08:26:24;762.17;;;702.93;;
10351;SDS011;5222;49.324;8.420;2022-09-12T08:28:53;760.20;;;700.65;;
10351;SDS011;5222;49.324;8.420;2022-09-12T08:31:20;772.92;;;711.92;;
10351;SDS011;5222;49.324;8.420;2022-09-12T08:33:49;764.08;;;705.28;;
10351;SDS011;5222;49.324;8.420;2022-09-12T08:36:16;765.13;;;705.10;;
10351;SDS011;5222;49.324;8.420;2022-09-12T08:38:45;769.67;;;710.47;;
10351;SDS011;5222;49.324;8.420;2022-09-12T08:41:17;766.63;;;707.07;;
10351;SDS011;5222;49.324;8.420;2022-09-12T08:43:55;766.55;;;706.20;;
10351;SDS011;5222;49.324;8.420;2022-09-12T08:46:35;768.13;;;708.63;;
10351;SDS011;5222;49.324;8.420;2022-09-12T08:49:09;754.65;;;694.97;;
10351;SDS011;5222;49.324;8.420;2022-09-12T08:51:39;769.72;;;710.55;;
10351;SDS011;5222;49.324;8.420;2022-09-12T08:54:20;762.40;;;703.25;;
10351;SDS011;5222;49.324;8.420;2022-09-12T08:56:50;761.00;;;701.97;;
10351;SDS011;5222;49.324;8.420;2022-09-12T08:59:24;757.92;;;698.75;;
10351;SDS011;5222;49.324;8.420;2022-09-12T09:01:51;758.85;;;700.58;;
10351;SDS011;5222;49.324;8.420;2022-09-12T09:04:27;759.50;;;699.40;;
10351;SDS011;5222;49.324;8.420;2022-09-12T09:07:16;759.72;;;700.67;;
10351;SDS011;5222;49.324;8.420;2022-09-12T09:10:06;743.38;;;685.38;;
10351;SDS011;5222;49.324;8.420;2022-09-12T09:12:42;750.87;;;692.37;;
10351;SDS011;5222;49.324;8.420;2022-09-12T09:15:22;735.67;;;677.78;;
10351;SDS011;5222;49.324;8.420;2022-09-12T09:17:59;753.37;;;695.13;;
10351;SDS011;5222;49.324;8.420;2022-09-12T09:20:31;759.53;;;699.10;;
10351;SDS011;5222;49.324;8.420;2022-09-12T09:23:05;748.47;;;690.53;;
10351;SDS011;5222;49.324;8.420;2022-09-12T09:25:37;771.07;;;712.13;;
10351;SDS011;5222;49.324;8.420;2022-09-12T09:28:11;750.70;;;691.95;;
10351;SDS011;5222;49.324;8.420;2022-09-12T09:30:43;759.20;;;699.37;;
10351;SDS011;5222;49.324;8.420;2022-09-12T09:33:14;750.17;;;691.60;;
10351;SDS011;5222;49.324;8.420;2022-09-12T09:35:46;744.83;;;687.10;;
10351;SDS011;5222;49.324;8.420;2022-09-12T09:38:21;758.50;;;699.38;;
10351;SDS011;5222;49.324;8.420;2022-09-12T09:40:52;748.65;;;689.70;;
10351;SDS011;5222;49.324;8.420;2022-09-12T09:43:33;753.33;;;695.17;;
10351;SDS011;5222;49.324;8.420;2022-09-12T09:46:03;745.60;;;687.23;;
10351;SDS011;5222;49.324;8.420;2022-09-12T09:48:31;751.03;;;692.42;;
10351;SDS011;5222;49.324;8.420;2022-09-12T09:51:03;740.47;;;681.58;;
10351;SDS011;5222;49.324;8.420;2022-09-12T09:53:33;756.53;;;697.78;;
10351;SDS011;5222;49.324;8.420;2022-09-12T09:56:05;744.55;;;685.85;;
10351;SDS011;5222;49.324;8.420;2022-09-12T09:58:36;757.83;;;698.45;;
10351;SDS011;5222;49.324;8.420;2022-09-12T10:01:10;773.17;;;713.20;;
10351;SDS011;5222;49.324;8.420;2022-09-12T10:03:46;765.85;;;706.95;;
10351;SDS011;5222;49.324;8.420;2022-09-12T10:06:21;767.95;;;708.15;;
10351;SDS011;5222;49.324;8.420;2022-09-12T10:09:03;771.55;;;713.35;;
10351;SDS011;5222;49.324;8.420;2022-09-12T10:11:32;785.28;;;726.05;;
10351;SDS011;5222;49.324;8.420;2022-09-12T10:13:59;792.73;;;733.50;;
10351;SDS011;5222;49.324;8.420;2022-09-12T10:16:29;779.37;;;721.03;;
10351;SDS011;5222;49.324;8.420;2022-09-12T10:18:57;774.65;;;716.50;;
10351;SDS011;5222;49.324;8.420;2022-09-12T10:21:30;835.38;;;774.28;;
10351;SDS011;5222;49.324;8.420;2022-09-12T10:24:09;799.25;;;739.83;;
10351;SDS011;5222;49.324;8.420;2022-09-12T10:26:48;781.65;;;723.33;;
10351;SDS011;5222;49.324;8.420;2022-09-12T10:29:19;797.45;;;737.83;;
10351;SDS011;5222;49.324;8.420;2022-09-12T10:31:51;800.60;;;741.28;;
10351;SDS011;5222;49.324;8.420;2022-09-12T10:34:21;809.20;;;746.92;;
10351;SDS011;5222;49.324;8.420;2022-09-12T10:36:52;805.97;;;745.60;;
10351;SDS011;5222;49.324;8.420;2022-09-12T10:39:23;807.80;;;747.40;;
10351;SDS011;5222;49.324;8.420;2022-09-12T10:41:51;795.65;;;737.03;;
10351;SDS011;5222;49.324;8.420;2022-09-12T10:44:28;792.58;;;733.17;;
10351;SDS011;5222;49.324;8.420;2022-09-12T10:46:58;795.30;;;735.83;;
10351;SDS011;5222;49.324;8.420;2022-09-12T10:49:43;789.42;;;730.50;;
10351;SDS011;5222;49.324;8.420;2022-09-12T10:52:18;787.80;;;728.58;;
10351;SDS011;5222;49.324;8.420;2022-09-12T10:54:48;807.90;;;747.83;;
10351;SDS011;5222;49.324;8.420;2022-09-12T10:57:31;805.90;;;745.60;;
10351;SDS011;5222;49.324;8.420;2022-09-12T11:00:08;801.38;;;741.10;;
10351;SDS011;5222;49.324;8.420;2022-09-12T11:02:49;791.75;;;732.35;;
10351;SDS011;5222;49.324;8.420;2022-09-12T11:05:27;783.58;;;724.20;;
10351;SDS011;5222;49.324;8.420;2022-09-12T11:08:14;799.10;;;739.25;;
10351;SDS011;5222;49.324;8.420;2022-09-12T11:11:03;812.53;;;751.40;;
10351;SDS011;5222;49.324;8.420;2022-09-12T11:13:45;800.88;;;740.78;;
10351;SDS011;5222;49.324;8.420;2022-09-12T11:16:23;815.75;;;755.80;;
10351;SDS011;5222;49.324;8.420;2022-09-12T11:22:12;838.03;;;777.05;;
10351;SDS011;5222;49.324;8.420;2022-09-12T11:24:53;837.47;;;775.97;;
10351;SDS011;5222;49.324;8.420;2022-09-12T11:27:40;836.55;;;775.83;;
10351;SDS011;5222;49.324;8.420;2022-09-12T11:30:15;849.15;;;788.00;;
10351;SDS011;5222;49.324;8.420;2022-09-12T11:32:56;839.50;;;779.15;;
10351;SDS011;5222;49.324;8.420;2022-09-12T11:35:32;849.22;;;787.83;;
10351;SDS011;5222;49.324;8.420;2022-09-12T11:38:12;835.25;;;774.95;;
10351;SDS011;5222;49.324;8.420;2022-09-12T11:40:49;834.85;;;775.08;;
10351;SDS011;5222;49.324;8.420;2022-09-12T11:43:24;830.53;;;770.53;;
10351;SDS011;5222;49.324;8.420;2022-09-12T11:46:00;833.83;;;772.22;;
10351;SDS011;5222;49.324;8.420;2022-09-12T11:48:37;824.08;;;763.13;;
10351;SDS011;5222;49.324;8.420;2022-09-12T11:51:14;770.72;;;712.60;;
10351;SDS011;5222;49.324;8.420;2022-09-12T11:53:48;731.57;;;673.83;;
10351;SDS011;5222;49.324;8.420;2022-09-12T11:56:27;747.53;;;689.25;;
10351;SDS011;5222;49.324;8.420;2022-09-12T11:58:56;736.50;;;679.17;;
10351;SDS011;5222;49.324;8.420;2022-09-12T12:01:30;707.97;;;651.88;;
10351;SDS011;5222;49.324;8.420;2022-09-12T12:04:05;713.13;;;657.07;;
10351;SDS011;5222;49.324;8.420;2022-09-12T12:06:39;711.80;;;654.97;;
10351;SDS011;5222;49.324;8.420;2022-09-12T12:09:15;701.40;;;645.17;;
10351;SDS011;5222;49.324;8.420;2022-09-12T12:11:43;722.17;;;665.60;;
10351;SDS011;5222;49.324;8.420;2022-09-12T12:14:16;712.33;;;655.92;;
10351;SDS011;5222;49.324;8.420;2022-09-12T12:16:46;726.50;;;669.47;;
10351;SDS011;5222;49.324;8.420;2022-09-12T12:19:22;728.33;;;671.67;;
10351;SDS011;5222;49.324;8.420;2022-09-12T12:22:04;723.25;;;666.60;;
10351;SDS011;5222;49.324;8.420;2022-09-12T12:24:34;739.20;;;682.13;;
10351;SDS011;5222;49.324;8.420;2022-09-12T12:27:23;718.40;;;662.20;;
10351;SDS011;5222;49.324;8.420;2022-09-12T12:36:28;711.47;;;655.35;;
10351;SDS011;5222;49.324;8.420;2022-09-12T12:38:58;708.15;;;653.15;;
10351;SDS011;5222;49.324;8.420;2022-09-12T12:41:42;708.58;;;653.10;;
10351;SDS011;5222;49.324;8.420;2022-09-12T12:47:15;715.47;;;659.70;;
10351;SDS011;5222;49.324;8.420;2022-09-12T12:49:48;718.45;;;662.53;;
10351;SDS011;5222;49.324;8.420;2022-09-12T12:52:17;732.65;;;675.78;;
10351;SDS011;5222;49.324;8.420;2022-09-12T12:57:27;720.13;;;662.38;;
10351;SDS011;5222;49.324;8.420;2022-09-12T13:00:00;725.43;;;669.07;;
10351;SDS011;5222;49.324;8.420;2022-09-12T13:02:30;724.10;;;666.33;;
10351;SDS011;5222;49.324;8.420;2022-09-12T13:05:00;710.17;;;653.65;;
10351;SDS011;5222;49.324;8.420;2022-09-12T13:07:31;713.35;;;656.25;;
10351;SDS011;5222;49.324;8.420;2022-09-12T13:10:01;703.00;;;647.15;;
10351;SDS011;5222;49.324;8.420;2022-09-12T13:12:32;697.53;;;641.50;;
10351;SDS011;5222;49.324;8.420;2022-09-12T13:15:02;694.57;;;639.67;;
10351;SDS011;5222;49.324;8.420;2022-09-12T13:17:49;712.95;;;657.03;;
10351;SDS011;5222;49.324;8.420;2022-09-12T13:20:18;708.15;;;652.53;;
10351;SDS011;5222;49.324;8.420;2022-09-12T13:22:48;703.97;;;647.20;;
10351;SDS011;5222;49.324;8.420;2022-09-12T13:25:21;709.30;;;652.10;;
10351;SDS011;5222;49.324;8.420;2022-09-12T13:28:02;697.53;;;641.03;;
10351;SDS011;5222;49.324;8.420;2022-09-12T13:30:32;716.65;;;659.53;;
10351;SDS011;5222;49.324;8.420;2022-09-12T13:33:09;701.65;;;645.78;;
10351;SDS011;5222;49.324;8.420;2022-09-12T13:35:47;701.90;;;645.08;;
10351;SDS011;5222;49.324;8.420;2022-09-12T13:38:28;696.65;;;639.88;;
10351;SDS011;5222;49.324;8.420;2022-09-12T13:41:12;705.97;;;650.25;;
10351;SDS011;5222;49.324;8.420;2022-09-12T13:43:58;724.28;;;664.85;;
10351;SDS011;5222;49.324;8.420;2022-09-12T13:46:29;706.40;;;650.00;;
10351;SDS011;5222;49.324;8.420;2022-09-12T13:48:59;700.15;;;642.85;;
10351;SDS011;5222;49.324;8.420;2022-09-12T13:51:37;716.30;;;659.85;;
10351;SDS011;5222;49.324;8.420;2022-09-12T13:54:04;701.60;;;644.35;;
10351;SDS011;5222;49.324;8.420;2022-09-12T13:56:31;709.65;;;653.08;;
10351;SDS011;5222;49.324;8.420;2022-09-12T13:59:00;718.13;;;661.83;;
10351;SDS011;5222;49.324;8.420;2022-09-12T14:01:36;703.50;;;647.65;;
10351;SDS011;5222;49.324;8.420;2022-09-12T14:04:09;719.03;;;661.80;;
10351;SDS011;5222;49.324;8.420;2022-09-12T14:06:59;706.47;;;650.47;;
10351;SDS011;5222;49.324;8.420;2022-09-12T14:09:29;731.83;;;669.47;;
10351;SDS011;5222;49.324;8.420;2022-09-12T14:11:57;718.22;;;661.10;;
10351;SDS011;5222;49.324;8.420;2022-09-12T14:14:27;715.63;;;659.43;;
10351;SDS011;5222;49.324;8.420;2022-09-12T14:16:57;710.97;;;654.40;;
10351;SDS011;5222;49.324;8.420;2022-09-12T14:19:25;702.37;;;646.77;;
10351;SDS011;5222;49.324;8.420;2022-09-12T14:21:53;726.33;;;669.60;;
10351;SDS011;5222;49.324;8.420;2022-09-12T14:24:21;711.42;;;654.78;;
10351;SDS011;5222;49.324;8.420;2022-09-12T14:26:49;704.35;;;648.35;;
10351;SDS011;5222;49.324;8.420;2022-09-12T14:29:20;712.00;;;655.10;;
10351;SDS011;5222;49.324;8.420;2022-09-12T14:32:00;720.20;;;663.03;;
10351;SDS011;5222;49.324;8.420;2022-09-12T14:34:29;722.20;;;664.70;;
10351;SDS011;5222;49.324;8.420;2022-09-12T14:36:56;722.42;;;665.63;;
10351;SDS011;5222;49.324;8.420;2022-09-12T14:39:25;726.80;;;668.13;;
10351;SDS011;5222;49.324;8.420;2022-09-12T14:42:00;728.75;;;669.72;;
10351;SDS011;5222;49.324;8.420;2022-09-12T14:44:30;729.67;;;670.88;;